Kansas City, Missouri
Traffic Map
Current Weather Conditions
Kansas City, Missouri
Clear
Clear
58°
Feels Like: 58°
Wind Chill: 58° Ceiling: Unl
Heat Index: 58° Visibility: 10mi
Dew Point: 46° Wind: 6mph
Humidity: 65% Direction: 220° (SW)
Pressure: 30.08in Gusts: 0mph
Raw Report DataKMKC 270754Z 22005KT 10SM CLR 14/08 A3008 RMK AO2 SLP181 T01440078
Traffic Incident Summary
Active as of:
Severity:
Category:
InformationThere was an issue retrieving the traffic information for this location. Please try a different location or try again shortly.
Advertisements
Track Severe Weather on mobile